createdAt,value
2017-02-06T00:00:29.576Z,95.4
2017-02-06T00:01:32.017Z,95.4
2017-02-06T00:02:34.480Z,95.4
2017-02-06T00:03:36.928Z,95.4
2017-02-06T00:04:39.370Z,95.4
2017-02-06T00:05:42.320Z,95.4
2017-02-06T00:06:44.756Z,95.4
2017-02-06T00:07:47.200Z,95.4
2017-02-06T00:08:49.641Z,95.4
2017-02-06T00:09:52.103Z,95.4
2017-02-06T00:10:55.051Z,95.4
2017-02-06T00:11:57.499Z,95.4
2017-02-06T00:12:59.943Z,95.4
2017-02-06T00:14:02.384Z,95.4
2017-02-06T00:15:05.332Z,95.4
2017-02-06T00:16:07.773Z,95.4
2017-02-06T00:17:10.388Z,95.4
2017-02-06T00:18:12.667Z,95.4
2017-02-06T00:20:18.021Z,95.4
2017-02-06T00:21:20.461Z,95.4
2017-02-06T00:22:22.900Z,95.4
2017-02-06T00:23:25.343Z,95.4
2017-02-06T00:24:28.296Z,95.4
2017-02-06T00:25:30.766Z,95.4
2017-02-06T00:26:33.227Z,95.4
2017-02-06T00:27:35.673Z,95.4
2017-02-06T00:28:38.447Z,95.4
2017-02-06T00:29:40.892Z,95.4
2017-02-06T00:30:43.333Z,95.4
2017-02-06T00:31:45.773Z,95.4
2017-02-06T00:32:48.714Z,95.4
2017-02-06T00:33:51.157Z,95.4
2017-02-06T00:34:54.123Z,95.4
2017-02-06T00:35:56.061Z,95.4
2017-02-06T00:36:58.502Z,95.4
2017-02-06T00:38:01.447Z,95.4
2017-02-06T00:39:03.890Z,95.4
2017-02-06T00:41:08.567Z,95.4
2017-02-06T00:42:11.511Z,95.4
2017-02-06T00:43:13.954Z,95.4
2017-02-06T00:44:16.733Z,95.4
2017-02-06T00:45:19.169Z,95.5
2017-02-06T00:46:21.609Z,95.4
2017-02-06T00:47:24.050Z,95.4
2017-02-06T00:48:26.827Z,95.4
2017-02-06T00:49:29.271Z,95.4
2017-02-06T00:50:32.049Z,95.4
2017-02-06T00:51:34.488Z,95.4
2017-02-06T00:52:36.929Z,95.4
2017-02-06T00:53:39.372Z,95.4
2017-02-06T00:54:41.814Z,95.4
2017-02-06T00:55:44.782Z,95.4
2017-02-06T00:57:49.463Z,95.4
2017-02-06T00:58:52.431Z,95.5
2017-02-06T00:59:54.705Z,95.5
2017-02-06T01:00:57.145Z,95.5
2017-02-06T01:03:02.519Z,95.4
2017-02-06T01:04:04.960Z,95.4
2017-02-06T01:05:07.399Z,95.4
2017-02-06T01:06:10.007Z,95.4
2017-02-06T01:07:12.446Z,95.4
2017-02-06T01:08:15.397Z,95.4
2017-02-06T01:09:17.842Z,95.4
2017-02-06T01:10:20.285Z,95.4
2017-02-06T01:11:22.722Z,95.4
2017-02-06T01:12:25.162Z,95.4
2017-02-06T01:13:28.105Z,95.4
2017-02-06T01:14:30.548Z,95.4
2017-02-06T01:15:32.988Z,95.4
2017-02-06T01:16:35.426Z,95.4
2017-02-06T01:18:40.772Z,95.5
2017-02-06T01:19:43.746Z,95.5
2017-02-06T01:20:45.682Z,95.5
2017-02-06T01:21:48.121Z,95.5
2017-02-06T01:23:53.485Z,95.5
2017-02-06T01:24:55.930Z,95.5
2017-02-06T01:25:58.418Z,95.5
2017-02-06T01:27:00.863Z,95.5
2017-02-06T01:29:06.217Z,95.5
2017-02-06T01:30:08.492Z,95.5
2017-02-06T01:31:11.275Z,95.5
2017-02-06T01:32:13.714Z,95.5
2017-02-06T01:33:16.153Z,95.5
2017-02-06T01:34:19.096Z,95.5
2017-02-06T01:35:21.534Z,95.5
2017-02-06T01:36:23.971Z,95.5
2017-02-06T01:37:26.408Z,95.5
2017-02-06T01:38:28.854Z,95.5
2017-02-06T01:39:31.795Z,95.5
2017-02-06T01:41:36.477Z,95.5
2017-02-06T01:42:39.424Z,95.5
2017-02-06T01:43:41.866Z,95.5
2017-02-06T01:44:44.310Z,95.5
2017-02-06T01:45:47.113Z,95.5
2017-02-06T01:46:49.556Z,95.5
2017-02-06T01:47:52.024Z,95.5
2017-02-06T01:48:54.465Z,95.5
2017-02-06T01:49:56.902Z,95.5
2017-02-06T01:50:59.843Z,95.5
2017-02-06T01:52:02.284Z,95.5
2017-02-06T01:53:04.725Z,95.5
2017-02-06T01:54:07.169Z,95.5
2017-02-06T01:55:09.783Z,95.5
2017-02-06T01:56:12.226Z,95.5
2017-02-06T01:57:15.002Z,95.5
2017-02-06T01:58:17.441Z,95.6
2017-02-06T01:59:19.882Z,95.6
2017-02-06T02:00:22.325Z,95.6
2017-02-06T02:01:25.800Z,95.6
2017-02-06T02:02:27.738Z,95.6
2017-02-06T02:03:30.201Z,95.6
2017-02-06T02:04:32.641Z,95.6
2017-02-06T02:05:35.082Z,95.6
2017-02-06T02:06:38.027Z,95.6
2017-02-06T02:07:40.472Z,95.6
2017-02-06T02:08:42.940Z,95.6
2017-02-06T02:09:45.380Z,95.6
2017-02-06T02:10:48.207Z,95.6
2017-02-06T02:11:50.648Z,95.6
2017-02-06T02:12:53.095Z,95.6
2017-02-06T02:13:55.534Z,95.6
2017-02-06T02:14:57.974Z,95.6
2017-02-06T02:16:00.919Z,95.6
2017-02-06T02:17:03.192Z,95.6
2017-02-06T02:18:05.970Z,95.6
2017-02-06T02:19:08.239Z,95.6
2017-02-06T02:20:10.677Z,95.6
2017-02-06T02:21:13.622Z,95.6
2017-02-06T02:22:16.064Z,95.6
2017-02-06T02:23:18.506Z,95.6
2017-02-06T02:24:20.950Z,95.6
2017-02-06T02:26:26.299Z,95.6
2017-02-06T02:27:28.572Z,95.6
2017-02-06T02:28:31.519Z,95.6
2017-02-06T02:29:33.964Z,95.6
2017-02-06T02:30:36.404Z,95.6
2017-02-06T02:31:38.843Z,95.6
2017-02-06T02:32:41.287Z,95.6
2017-02-06T02:33:44.069Z,95.6
2017-02-06T02:34:46.515Z,95.6
2017-02-06T02:35:48.953Z,95.6
2017-02-06T02:36:51.892Z,95.6
2017-02-06T02:37:54.340Z,95.6
2017-02-06T02:38:56.780Z,95.6
2017-02-06T02:39:59.254Z,95.6
2017-02-06T02:41:01.701Z,95.6
2017-02-06T02:42:04.648Z,95.6
2017-02-06T02:43:06.924Z,95.6
2017-02-06T02:44:09.363Z,95.6
2017-02-06T02:45:12.308Z,95.6
2017-02-06T02:46:14.795Z,95.6
2017-02-06T02:47:17.064Z,95.6
2017-02-06T02:48:19.845Z,95.6
2017-02-06T02:49:22.311Z,95.6
2017-02-06T02:50:24.753Z,95.6
2017-02-06T02:51:27.193Z,95.6
2017-02-06T02:52:29.632Z,95.6
2017-02-06T02:53:32.575Z,95.6
2017-02-06T02:54:35.546Z,95.6
2017-02-06T02:55:37.488Z,95.6
2017-02-06T02:56:39.927Z,95.6
2017-02-06T02:57:42.370Z,95.6
2017-02-06T02:58:45.144Z,95.6
2017-02-06T02:59:47.582Z,95.6
2017-02-06T03:00:50.023Z,95.6
2017-02-06T03:01:52.966Z,95.6
2017-02-06T03:02:55.408Z,95.6
2017-02-06T03:03:57.862Z,95.6
2017-02-06T03:05:00.303Z,95.6
2017-02-06T03:06:02.746Z,95.6
2017-02-06T03:07:05.691Z,95.6
2017-02-06T03:08:07.960Z,95.6
2017-02-06T03:09:10.399Z,95.6
2017-02-06T03:10:13.175Z,95.6
2017-02-06T03:11:15.635Z,95.6
2017-02-06T03:12:18.412Z,95.6
2017-02-06T03:13:20.853Z,95.6
2017-02-06T03:14:23.297Z,95.6
2017-02-06T03:15:25.746Z,95.6
2017-02-06T03:16:28.207Z,95.6
2017-02-06T03:18:33.563Z,95.6
2017-02-06T03:19:36.006Z,95.6
2017-02-06T03:20:38.451Z,95.6
2017-02-06T03:21:41.225Z,95.6
2017-02-06T03:22:43.667Z,95.6
2017-02-06T03:23:46.110Z,95.6
2017-02-06T03:24:48.551Z,95.6
2017-02-06T03:26:53.902Z,95.6
2017-02-06T03:27:56.344Z,95.5
2017-02-06T03:28:58.783Z,95.5
2017-02-06T03:30:01.730Z,95.5
2017-02-06T03:31:04.176Z,95.5
2017-02-06T03:32:06.620Z,95.5
2017-02-06T03:33:09.061Z,95.5
2017-02-06T03:34:11.503Z,95.5
2017-02-06T03:35:14.447Z,95.5
2017-02-06T03:36:16.887Z,95.5
2017-02-06T03:37:19.327Z,95.5
2017-02-06T03:38:21.763Z,95.5
2017-02-06T03:39:24.237Z,95.5
2017-02-06T03:40:26.510Z,95.5
2017-02-06T03:41:29.454Z,95.5
2017-02-06T03:42:31.896Z,95.5
2017-02-06T03:43:34.309Z,95.5
2017-02-06T03:44:37.262Z,95.5
2017-02-06T03:45:39.707Z,95.5
2017-02-06T03:46:42.147Z,95.5
2017-02-06T03:47:44.421Z,95.5
2017-02-06T03:49:49.793Z,95.5
2017-02-06T03:50:52.244Z,95.5
2017-02-06T03:51:54.686Z,95.5
2017-02-06T03:54:00.043Z,95.5
2017-02-06T03:55:02.489Z,95.5
2017-02-06T03:56:05.299Z,95.5
2017-02-06T03:57:07.738Z,95.5
2017-02-06T03:58:10.178Z,95.5
2017-02-06T03:59:12.623Z,95.5
2017-02-06T04:00:15.067Z,95.5
2017-02-06T04:01:17.509Z,95.5
2017-02-06T04:02:20.285Z,95.5
2017-02-06T04:03:22.730Z,95.5
2017-02-06T04:04:25.170Z,95.5
2017-02-06T04:05:28.124Z,95.5
2017-02-06T04:06:30.403Z,95.5
2017-02-06T04:07:32.846Z,95.5
2017-02-06T04:08:35.793Z,95.5
2017-02-06T04:09:38.067Z,95.5
2017-02-06T04:10:40.508Z,95.5
2017-02-06T04:11:43.283Z,95.5
2017-02-06T04:12:45.728Z,95.5
2017-02-06T04:13:48.175Z,95.5
2017-02-06T04:14:50.618Z,95.5
2017-02-06T04:15:53.069Z,95.5
2017-02-06T04:16:56.014Z,95.5
2017-02-06T04:17:58.475Z,95.5
2017-02-06T04:19:00.917Z,95.5
2017-02-06T04:20:03.195Z,95.5
2017-02-06T04:21:06.144Z,95.5
2017-02-06T04:22:08.589Z,95.5
2017-02-06T04:23:11.034Z,95.5
2017-02-06T04:24:13.475Z,95.6
2017-02-06T04:25:16.424Z,95.6
2017-02-06T04:26:18.874Z,95.6
2017-02-06T04:27:21.319Z,95.6
2017-02-06T04:28:23.760Z,95.6
2017-02-06T04:29:26.203Z,95.6
2017-02-06T04:30:28.647Z,95.6
2017-02-06T04:31:31.591Z,95.6
2017-02-06T04:32:34.033Z,95.6
2017-02-06T04:33:36.474Z,95.6
2017-02-06T04:34:38.916Z,95.6
2017-02-06T04:35:41.358Z,95.6
2017-02-06T04:37:46.706Z,95.6
2017-02-06T04:38:49.148Z,95.6
2017-02-06T04:39:51.588Z,95.6
2017-02-06T04:40:54.032Z,95.6
2017-02-06T04:41:56.983Z,95.6
2017-02-06T04:42:59.255Z,95.6
2017-02-06T04:44:01.703Z,95.6
2017-02-06T04:45:03.982Z,95.6
2017-02-06T04:46:06.929Z,95.6
2017-02-06T04:47:09.205Z,95.6
2017-02-06T04:48:12.153Z,95.6
2017-02-06T04:49:14.601Z,95.6
2017-02-06T04:50:17.045Z,95.6
2017-02-06T04:51:19.487Z,95.6
2017-02-06T04:52:21.953Z,95.6
2017-02-06T04:53:24.895Z,95.6
2017-02-06T04:54:27.336Z,95.6
2017-02-06T04:55:29.778Z,95.6
2017-02-06T04:56:32.219Z,95.6
2017-02-06T04:57:34.664Z,95.6
2017-02-06T04:58:37.632Z,95.6
2017-02-06T04:59:40.078Z,95.6
2017-02-06T05:00:42.518Z,95.6
2017-02-06T05:01:44.959Z,95.6
2017-02-06T05:02:47.234Z,95.6
2017-02-06T05:03:50.180Z,95.6
2017-02-06T05:04:52.623Z,95.6
2017-02-06T05:05:55.089Z,95.6
2017-02-06T05:06:57.525Z,95.6
2017-02-06T05:07:59.967Z,95.7
2017-02-06T05:09:02.911Z,95.7
2017-02-06T05:10:05.355Z,95.7
2017-02-06T05:11:07.643Z,95.6
2017-02-06T05:12:10.418Z,95.6
2017-02-06T05:13:12.859Z,95.6
2017-02-06T05:15:17.710Z,95.6
2017-02-06T05:16:21.179Z,95.6
2017-02-06T05:19:27.932Z,95.7
2017-02-06T05:20:30.374Z,95.7
2017-02-06T05:21:33.319Z,95.6
2017-02-06T05:22:35.767Z,95.7
2017-02-06T05:23:38.210Z,95.7
2017-02-06T05:24:40.653Z,95.7
2017-02-06T05:25:43.096Z,95.7
2017-02-06T05:26:46.043Z,95.7
2017-02-06T05:27:48.489Z,95.7
2017-02-06T05:28:50.932Z,95.7
2017-02-06T05:29:53.375Z,95.7
2017-02-06T05:30:55.811Z,95.7
2017-02-06T05:31:58.254Z,95.7
2017-02-06T05:33:01.197Z,95.7
2017-02-06T05:34:03.641Z,95.7
2017-02-06T05:35:06.087Z,95.8
2017-02-06T05:36:08.526Z,95.8
2017-02-06T05:37:11.303Z,95.8
2017-02-06T05:38:13.749Z,95.8
2017-02-06T05:39:16.026Z,95.8
2017-02-06T05:40:18.970Z,95.8
2017-02-06T05:41:21.410Z,95.8
2017-02-06T05:42:23.851Z,95.8
2017-02-06T05:43:26.299Z,95.8
2017-02-06T05:44:28.746Z,95.8
2017-02-06T05:45:31.699Z,95.8
2017-02-06T05:46:34.145Z,95.8
2017-02-06T05:47:36.428Z,95.8
2017-02-06T05:49:41.785Z,95.8
2017-02-06T05:50:44.767Z,95.8
2017-02-06T05:51:46.704Z,95.8
2017-02-06T05:52:49.146Z,95.8
2017-02-06T05:53:51.593Z,95.8
2017-02-06T05:54:54.544Z,95.8
2017-02-06T05:56:59.393Z,95.8
2017-02-06T05:58:02.171Z,95.8
2017-02-06T05:59:04.612Z,95.8
2017-02-06T06:00:07.053Z,95.8
2017-02-06T06:01:09.331Z,95.8
2017-02-06T06:02:12.275Z,95.8
2017-02-06T06:03:15.243Z,95.8
2017-02-06T06:04:17.180Z,95.8
2017-02-06T06:05:19.619Z,95.8
2017-02-06T06:06:22.402Z,95.7
2017-02-06T06:07:24.880Z,95.8
2017-02-06T06:08:27.328Z,95.8
2017-02-06T06:09:29.772Z,95.8
2017-02-06T06:10:32.210Z,95.8
2017-02-06T06:11:35.153Z,95.8
2017-02-06T06:12:37.601Z,95.8
2017-02-06T06:13:40.052Z,95.8
2017-02-06T06:14:42.499Z,95.8
2017-02-06T06:15:45.280Z,95.8
2017-02-06T06:16:47.749Z,95.8
2017-02-06T06:17:50.187Z,95.8
2017-02-06T06:18:52.636Z,95.8
2017-02-06T06:19:55.083Z,95.8
2017-02-06T06:20:57.556Z,95.8
2017-02-06T06:22:01.031Z,95.8
2017-02-06T06:23:02.969Z,95.8
2017-02-06T06:25:07.654Z,95.8
2017-02-06T06:26:10.434Z,95.8
2017-02-06T06:27:12.879Z,95.8
2017-02-06T06:28:15.323Z,95.8
2017-02-06T06:29:17.799Z,95.8
2017-02-06T06:30:20.751Z,95.8
2017-02-06T06:31:23.190Z,95.8
2017-02-06T06:32:25.633Z,95.8
2017-02-06T06:33:27.904Z,95.8
2017-02-06T06:35:33.308Z,95.8
2017-02-06T06:36:36.279Z,95.8
2017-02-06T06:37:38.218Z,95.8
2017-02-06T06:38:40.658Z,95.8
2017-02-06T06:39:43.102Z,95.8
2017-02-06T06:40:46.050Z,95.8
2017-02-06T06:41:48.490Z,95.8
2017-02-06T06:42:50.938Z,95.8
2017-02-06T06:44:55.808Z,95.8
2017-02-06T06:45:58.590Z,95.8
2017-02-06T06:47:01.039Z,95.8
2017-02-06T06:48:03.478Z,95.8
2017-02-06T06:49:05.921Z,95.8
2017-02-06T06:50:08.701Z,95.8
2017-02-06T06:51:11.152Z,95.8
2017-02-06T06:52:13.594Z,95.8
2017-02-06T06:53:16.031Z,95.8
2017-02-06T06:54:18.874Z,95.8
2017-02-06T06:55:21.312Z,95.8
2017-02-06T06:56:23.757Z,95.8
2017-02-06T06:57:26.203Z,95.8
2017-02-06T06:58:29.156Z,95.8
2017-02-06T07:00:34.008Z,95.8
2017-02-06T07:01:36.452Z,95.8
2017-02-06T07:02:38.898Z,95.8
2017-02-06T07:04:44.087Z,95.8
2017-02-06T07:05:46.531Z,95.8
2017-02-06T07:06:48.973Z,95.8
2017-02-06T07:07:51.923Z,95.8
2017-02-06T07:08:54.363Z,95.8
2017-02-06T07:09:56.805Z,95.8
2017-02-06T07:10:59.249Z,95.8
2017-02-06T07:12:01.693Z,95.8
2017-02-06T07:13:04.636Z,95.8
2017-02-06T07:14:06.911Z,95.8
2017-02-06T07:15:09.365Z,95.8
2017-02-06T07:16:11.645Z,95.8
2017-02-06T07:17:14.588Z,95.8
2017-02-06T07:18:17.029Z,95.8
2017-02-06T07:19:19.468Z,95.8
2017-02-06T07:20:21.916Z,95.8
2017-02-06T07:21:24.409Z,95.8
2017-02-06T07:22:27.355Z,95.8
2017-02-06T07:23:29.800Z,95.8
2017-02-06T07:25:34.649Z,95.8
2017-02-06T07:26:37.096Z,95.8
2017-02-06T07:27:40.039Z,95.8
2017-02-06T07:28:42.491Z,95.8
2017-02-06T07:29:44.940Z,95.8
2017-02-06T07:30:47.386Z,95.8
2017-02-06T07:31:49.830Z,95.8
2017-02-06T07:32:52.271Z,95.9
2017-02-06T07:33:55.224Z,95.9
2017-02-06T07:34:57.677Z,95.9
2017-02-06T07:36:00.128Z,95.9
2017-02-06T07:37:02.573Z,95.9
2017-02-06T07:38:05.354Z,95.9
2017-02-06T07:39:07.627Z,95.8
2017-02-06T07:40:10.399Z,95.8
2017-02-06T07:41:12.843Z,95.8
2017-02-06T07:42:15.289Z,95.9
2017-02-06T07:43:17.736Z,95.9
2017-02-06T07:44:20.175Z,95.9
2017-02-06T07:46:25.524Z,95.8
2017-02-06T07:47:27.968Z,95.8
2017-02-06T07:48:30.411Z,95.8
2017-02-06T07:49:32.850Z,95.8
2017-02-06T07:50:35.288Z,95.8
2017-02-06T07:51:38.237Z,95.8
2017-02-06T07:53:43.087Z,95.9
2017-02-06T07:54:45.536Z,95.9
2017-02-06T07:55:47.980Z,95.9
2017-02-06T07:56:50.425Z,95.9
2017-02-06T07:57:53.367Z,95.9
2017-02-06T07:58:55.812Z,95.9
2017-02-06T07:59:58.293Z,95.9
2017-02-06T08:01:00.740Z,95.9
2017-02-06T08:02:03.515Z,95.9
2017-02-06T08:03:05.958Z,95.9
2017-02-06T08:04:08.233Z,95.9
2017-02-06T08:05:10.678Z,95.8
2017-02-06T08:06:13.631Z,95.8
2017-02-06T08:07:16.072Z,95.8
2017-02-06T08:08:18.516Z,95.8
2017-02-06T08:10:23.365Z,95.8
2017-02-06T08:11:26.314Z,95.8
2017-02-06T08:12:28.607Z,95.8
2017-02-06T08:13:30.888Z,95.8
2017-02-06T08:14:33.836Z,95.8
2017-02-06T08:15:36.278Z,95.8
2017-02-06T08:16:38.724Z,95.9
2017-02-06T08:17:41.167Z,95.9
2017-02-06T08:18:43.615Z,95.9
2017-02-06T08:19:46.055Z,95.9
2017-02-06T08:20:48.999Z,95.9
2017-02-06T08:21:51.439Z,95.9
2017-02-06T08:22:53.890Z,95.9
2017-02-06T08:23:56.331Z,95.9
2017-02-06T08:24:58.777Z,95.9
2017-02-06T08:26:01.222Z,95.9
2017-02-06T08:27:04.165Z,95.9
2017-02-06T08:28:06.610Z,95.9
2017-02-06T08:29:09.055Z,95.9
2017-02-06T08:30:11.499Z,95.9
2017-02-06T08:31:13.949Z,95.9
2017-02-06T08:32:16.425Z,95.9
2017-02-06T08:33:19.371Z,95.9
2017-02-06T08:34:21.812Z,95.9
2017-02-06T08:35:24.261Z,95.9
2017-02-06T08:36:27.091Z,95.9
2017-02-06T08:37:29.030Z,95.9
2017-02-06T08:38:31.980Z,95.9
2017-02-06T08:39:34.425Z,95.9
2017-02-06T08:40:36.892Z,95.9
2017-02-06T08:41:39.330Z,95.9
2017-02-06T08:42:41.779Z,95.9
2017-02-06T08:43:44.053Z,95.9
2017-02-06T08:44:46.999Z,95.9
2017-02-06T08:45:49.442Z,95.9
2017-02-06T08:46:51.889Z,95.9
2017-02-06T08:47:54.333Z,95.9
2017-02-06T08:48:57.279Z,95.9
2017-02-06T08:49:59.722Z,96
2017-02-06T08:51:02.192Z,96
2017-02-06T08:52:04.639Z,96
2017-02-06T08:53:07.086Z,96
2017-02-06T08:54:09.361Z,95.9
2017-02-06T08:55:12.311Z,95.9
2017-02-06T08:56:14.752Z,95.9
2017-02-06T08:57:17.192Z,95.9
2017-02-06T08:58:19.641Z,95.9
2017-02-06T08:59:22.090Z,95.9
2017-02-06T09:00:25.035Z,95.9
2017-02-06T09:01:27.475Z,95.9
2017-02-06T09:02:29.926Z,95.9
2017-02-06T09:03:32.201Z,95.9
2017-02-06T09:04:35.144Z,96
2017-02-06T09:05:37.419Z,95.9
2017-02-06T09:06:39.861Z,96
2017-02-06T09:07:42.467Z,96
2017-02-06T09:08:44.918Z,96
2017-02-06T09:09:47.360Z,96
2017-02-06T09:10:49.804Z,96
2017-02-06T09:11:52.755Z,96
2017-02-06T09:12:55.198Z,96
2017-02-06T09:13:57.472Z,96
2017-02-06T09:14:59.908Z,96
2017-02-06T09:16:02.858Z,96
2017-02-06T09:17:05.305Z,95.9
2017-02-06T09:18:07.747Z,96
2017-02-06T09:19:10.193Z,96
2017-02-06T09:20:13.163Z,96
2017-02-06T09:21:15.105Z,95.9
2017-02-06T09:22:17.881Z,95.9
2017-02-06T09:23:20.328Z,95.9
2017-02-06T09:24:23.298Z,95.9
2017-02-06T09:25:25.238Z,95.9
2017-02-06T09:26:27.729Z,96
2017-02-06T09:27:30.683Z,95.9
2017-02-06T09:28:33.127Z,95.9
2017-02-06T09:30:37.802Z,95.9
2017-02-06T09:31:40.745Z,95.9
2017-02-06T09:32:43.191Z,95.9
2017-02-06T09:33:45.633Z,95.9
2017-02-06T09:34:48.073Z,95.9
2017-02-06T09:35:50.512Z,95.9
2017-02-06T09:37:56.387Z,96
2017-02-06T09:38:58.057Z,96
2017-02-06T09:40:00.500Z,96
2017-02-06T09:41:03.449Z,96
2017-02-06T09:42:05.724Z,95.9
2017-02-06T09:43:07.996Z,96
2017-02-06T09:44:10.774Z,95.9
2017-02-06T09:45:13.550Z,95.9
2017-02-06T09:46:15.995Z,95.9
2017-02-06T09:47:18.443Z,96
2017-02-06T09:48:20.925Z,96
2017-02-06T09:49:23.890Z,96
2017-02-06T09:50:25.830Z,96
2017-02-06T09:51:28.272Z,96
2017-02-06T09:52:31.222Z,96
2017-02-06T09:53:33.665Z,96
2017-02-06T09:54:36.106Z,96
2017-02-06T09:55:39.075Z,96
2017-02-06T09:56:41.018Z,96
2017-02-06T09:57:43.460Z,96
2017-02-06T09:58:46.935Z,96
2017-02-06T09:59:48.877Z,96
2017-02-06T10:00:51.320Z,96
2017-02-06T10:01:53.762Z,96
2017-02-06T10:02:56.206Z,96
2017-02-06T10:03:58.507Z,96
2017-02-06T10:05:01.452Z,96
2017-02-06T10:06:03.896Z,96
2017-02-06T10:07:06.340Z,96
2017-02-06T10:08:08.621Z,96
2017-02-06T10:09:11.574Z,96
2017-02-06T10:10:14.024Z,96
2017-02-06T10:11:16.469Z,96
2017-02-06T10:13:21.329Z,96
2017-02-06T10:14:23.773Z,96
2017-02-06T10:15:26.718Z,96
2017-02-06T10:16:29.162Z,96
2017-02-06T10:17:31.605Z,96
2017-02-06T10:18:34.048Z,96
2017-02-06T10:19:36.489Z,96
2017-02-06T10:20:38.934Z,96.1
2017-02-06T10:21:41.710Z,96.1
2017-02-06T10:22:43.816Z,96.1
2017-02-06T10:23:46.762Z,96.1
2017-02-06T10:24:49.209Z,96
2017-02-06T10:25:51.991Z,96
2017-02-06T10:26:54.433Z,96.1
2017-02-06T10:27:56.714Z,96.1
2017-02-06T10:28:59.161Z,96.1
2017-02-06T10:30:01.602Z,96.1
2017-02-06T10:31:04.548Z,96
2017-02-06T10:32:07.515Z,96.1
2017-02-06T10:33:09.286Z,96.1
2017-02-06T10:34:12.067Z,96.1
2017-02-06T10:35:14.508Z,96.1
2017-02-06T10:36:16.950Z,96.1
2017-02-06T10:37:19.418Z,96.1
2017-02-06T10:38:21.862Z,96
2017-02-06T10:39:24.310Z,96.1
2017-02-06T10:40:27.254Z,96.1
2017-02-06T10:41:29.699Z,96.1
2017-02-06T10:42:32.148Z,96.1
2017-02-06T10:43:34.595Z,96.1
2017-02-06T10:44:37.037Z,96.1
2017-02-06T10:45:39.483Z,96.1
2017-02-06T10:47:44.832Z,96.1
2017-02-06T10:48:47.107Z,96.1
2017-02-06T10:49:49.552Z,96.1
2017-02-06T10:50:52.503Z,96.1
2017-02-06T10:51:54.943Z,96.1
2017-02-06T10:52:57.384Z,96.1
2017-02-06T10:53:59.657Z,96.1
2017-02-06T10:56:04.838Z,96.1
2017-02-06T10:57:07.619Z,96.1
2017-02-06T10:58:10.069Z,96.1
2017-02-06T10:59:12.353Z,96.1
2017-02-06T11:00:14.803Z,96.1
2017-02-06T11:01:17.248Z,96.1
2017-02-06T11:02:20.217Z,96.1
2017-02-06T11:03:22.667Z,96.1
2017-02-06T11:04:25.134Z,96.1
2017-02-06T11:05:27.573Z,96.1
2017-02-06T11:06:30.018Z,96.1
2017-02-06T11:07:32.462Z,96.1
2017-02-06T11:08:34.905Z,96.1
2017-02-06T11:09:37.847Z,96.1
2017-02-06T11:10:40.124Z,96.1
2017-02-06T11:11:42.901Z,96.1
2017-02-06T11:12:45.342Z,96.1
2017-02-06T11:13:47.783Z,96.1
2017-02-06T11:14:50.250Z,96.1
2017-02-06T11:15:52.699Z,96.1
2017-02-06T11:16:55.525Z,96.1
2017-02-06T11:17:57.969Z,96.1
2017-02-06T11:19:00.237Z,96.1
2017-02-06T11:20:02.677Z,96.1
2017-02-06T11:21:05.282Z,96.1
2017-02-06T11:22:07.725Z,96.1
2017-02-06T11:23:11.035Z,96.1
2017-02-06T11:24:12.973Z,96.1
2017-02-06T11:25:15.442Z,96.1
2017-02-06T11:26:17.718Z,96.1
2017-02-06T11:27:20.664Z,96.1
2017-02-06T11:28:23.103Z,96.1
2017-02-06T11:29:25.542Z,96.1
2017-02-06T11:30:28.315Z,96.2
2017-02-06T11:31:30.754Z,96.1
2017-02-06T11:32:33.198Z,96.1
2017-02-06T11:33:35.643Z,96.1
2017-02-06T11:34:38.084Z,96.1
2017-02-06T11:35:40.356Z,96.1
2017-02-06T11:36:43.328Z,96.1
2017-02-06T11:38:48.179Z,96.2
2017-02-06T11:39:50.620Z,96.1
2017-02-06T11:40:53.400Z,96.2
2017-02-06T11:41:55.846Z,96.2
2017-02-06T11:44:00.694Z,96.2
2017-02-06T11:45:03.663Z,96.2
2017-02-06T11:46:06.631Z,96.2
2017-02-06T11:47:08.570Z,96.2
2017-02-06T11:49:13.423Z,96.2
2017-02-06T11:50:15.864Z,96.2
2017-02-06T11:51:18.306Z,96.2
2017-02-06T11:52:21.303Z,96.2
2017-02-06T11:53:23.579Z,96.2
2017-02-06T11:54:26.020Z,96.1
2017-02-06T11:55:28.466Z,96.2
2017-02-06T11:56:30.742Z,96.1
2017-02-06T11:57:33.688Z,96.1
2017-02-06T11:58:36.130Z,96.1
2017-02-06T11:59:38.573Z,96.1
2017-02-06T12:00:40.847Z,96.1
2017-02-06T12:01:43.790Z,96.2
2017-02-06T12:02:46.066Z,96.2
2017-02-06T12:03:48.527Z,96.2
2017-02-06T12:04:51.475Z,96.2
2017-02-06T12:05:53.925Z,96.1
2017-02-06T12:06:56.389Z,96.1
2017-02-06T12:07:58.829Z,96.1
2017-02-06T12:09:01.270Z,96.1
2017-02-06T12:10:03.715Z,96.1
2017-02-06T12:11:06.159Z,96.1
2017-02-06T12:12:09.102Z,96.1
2017-02-06T12:13:11.385Z,96.1
2017-02-06T12:14:13.828Z,96.1
2017-02-06T12:15:16.266Z,96.1
2017-02-06T12:17:21.345Z,96.2
2017-02-06T12:18:23.790Z,96.2
2017-02-06T12:19:27.116Z,96.2
2017-02-06T12:20:29.056Z,96.2
2017-02-06T12:21:32.032Z,96.2
2017-02-06T12:22:33.969Z,96.2
2017-02-06T12:23:36.946Z,96.2
2017-02-06T12:24:38.889Z,96.2
2017-02-06T12:25:41.669Z,96.2
2017-02-06T12:26:43.944Z,96.2
2017-02-06T12:27:46.724Z,96.2
2017-02-06T12:28:49.172Z,96.1
2017-02-06T12:29:51.613Z,96.1
2017-02-06T12:30:54.056Z,96.1
2017-02-06T12:31:56.501Z,96.1
2017-02-06T12:32:59.975Z,96.1
2017-02-06T12:34:01.921Z,96.1
2017-02-06T12:35:04.362Z,96.1
2017-02-06T12:36:06.806Z,96.1
2017-02-06T12:37:09.086Z,96.1
2017-02-06T12:38:12.035Z,96.1
2017-02-06T12:40:16.884Z,96.1
2017-02-06T12:41:19.327Z,96.1
2017-02-06T12:42:21.765Z,96.2
2017-02-06T12:43:24.204Z,96.2
2017-02-06T12:44:27.153Z,96.2
2017-02-06T12:45:29.597Z,96.2
2017-02-06T12:47:34.449Z,96.2
2017-02-06T12:48:36.889Z,96.2
2017-02-06T12:49:39.888Z,96.2
2017-02-06T12:50:41.832Z,96.2
2017-02-06T12:51:44.776Z,96.2
2017-02-06T12:52:47.218Z,96.2
2017-02-06T12:53:49.658Z,96.2
2017-02-06T12:54:52.101Z,96.2
2017-02-06T12:55:54.542Z,96.2
2017-02-06T12:56:56.984Z,96.2
2017-02-06T12:57:59.423Z,96.2
2017-02-06T12:59:02.370Z,96.2
2017-02-06T13:00:04.807Z,96.2
2017-02-06T13:01:07.248Z,96.2
2017-02-06T13:02:09.689Z,96.2
2017-02-06T13:03:12.132Z,96.2
2017-02-06T13:04:14.595Z,96.2
2017-02-06T13:05:17.047Z,96.2
2017-02-06T13:06:19.997Z,96.2
2017-02-06T13:07:22.464Z,96.2
2017-02-06T13:08:24.937Z,96.2
2017-02-06T13:09:27.391Z,96.2
2017-02-06T13:10:29.832Z,96.2
2017-02-06T13:11:32.271Z,96.2
2017-02-06T13:12:34.715Z,96.2
2017-02-06T13:13:37.156Z,96.2
2017-02-06T13:14:40.100Z,96.2
2017-02-06T13:15:42.546Z,96.2
2017-02-06T13:16:44.821Z,96.2
2017-02-06T13:17:47.260Z,96.2
2017-02-06T13:18:50.203Z,96.2
2017-02-06T13:19:52.646Z,96.2
2017-02-06T13:20:54.925Z,96.2
2017-02-06T13:21:57.367Z,96.2
2017-02-06T13:22:59.810Z,96.2
2017-02-06T13:24:02.306Z,96.2
2017-02-06T13:26:07.658Z,96.2
2017-02-06T13:27:09.930Z,96.2
2017-02-06T13:28:12.540Z,96.2
2017-02-06T13:29:15.317Z,96.2
2017-02-06T13:30:17.761Z,96.2
2017-02-06T13:31:20.201Z,96.2
2017-02-06T13:32:22.644Z,96.2
2017-02-06T13:33:25.096Z,96.2
2017-02-06T13:34:27.535Z,96.2
2017-02-06T13:35:29.979Z,96.2
2017-02-06T13:36:32.928Z,96.2
2017-02-06T13:37:35.393Z,96.2
2017-02-06T13:38:37.838Z,96.2
2017-02-06T13:40:42.688Z,96.2
2017-02-06T13:41:44.962Z,96.2
2017-02-06T13:42:47.909Z,96.2
2017-02-06T13:43:50.186Z,96.2
2017-02-06T13:44:52.964Z,96.2
2017-02-06T13:46:57.816Z,96.2
2017-02-06T13:48:00.262Z,96.2
2017-02-06T13:49:02.702Z,96.2
2017-02-06T13:50:05.651Z,96.2
2017-02-06T13:51:08.093Z,96.2
2017-02-06T13:52:10.707Z,96.2
2017-02-06T13:53:13.155Z,96.2
2017-02-06T13:54:15.601Z,96.2
2017-02-06T13:55:18.041Z,96.2
2017-02-06T13:56:20.487Z,96.2
2017-02-06T13:57:22.930Z,96.2
2017-02-06T13:58:25.370Z,96.2
2017-02-06T14:00:30.724Z,96.2
2017-02-06T14:01:33.165Z,96.2
2017-02-06T14:02:35.443Z,96.2
2017-02-06T14:03:38.910Z,96.2
2017-02-06T14:05:43.248Z,96.2
2017-02-06T14:06:45.519Z,96.2
2017-02-06T14:07:47.968Z,96.2
2017-02-06T14:08:50.910Z,96.2
2017-02-06T14:09:53.182Z,96.2
2017-02-06T14:10:55.625Z,96.2
2017-02-06T14:11:58.067Z,96.2
2017-02-06T14:13:01.017Z,96.2
2017-02-06T14:14:03.460Z,96.2
2017-02-06T14:15:05.899Z,96.2
2017-02-06T14:16:08.342Z,96.2
2017-02-06T14:17:10.781Z,96.2
2017-02-06T14:18:13.219Z,96.2
2017-02-06T14:19:15.664Z,96.2
2017-02-06T14:20:18.611Z,96.2
2017-02-06T14:21:21.057Z,96.2
2017-02-06T14:22:23.496Z,96.2
2017-02-06T14:23:25.937Z,96.2
2017-02-06T14:24:28.376Z,96.2
2017-02-06T14:25:30.815Z,96.2
2017-02-06T14:26:33.259Z,96.2
2017-02-06T14:27:35.700Z,96.2
2017-02-06T14:30:43.479Z,96.2
2017-02-06T14:31:45.920Z,96.2
2017-02-06T14:32:48.360Z,96.2
2017-02-06T14:33:50.806Z,96.2
2017-02-06T14:34:53.751Z,96.2
2017-02-06T14:35:56.196Z,96.2
2017-02-06T14:36:58.634Z,96.2
2017-02-06T14:38:00.911Z,96.2
2017-02-06T14:39:03.366Z,96.2
2017-02-06T14:40:05.809Z,96.2
2017-02-06T14:41:08.755Z,96.2
2017-02-06T14:42:11.198Z,96.2
2017-02-06T14:43:13.660Z,96.2
2017-02-06T14:44:16.010Z,96.2